sensor_id;sensor_type;location;lat;lon;timestamp;temperature;humidity
43524;DHT22;29120;52.006;6.020;2022-11-20T00:02:18;-0.80;91.50
43524;DHT22;29120;52.006;6.020;2022-11-20T00:04:44;-0.80;91.60
43524;DHT22;29120;52.006;6.020;2022-11-20T00:07:09;-0.80;91.70
43524;DHT22;29120;52.006;6.020;2022-11-20T00:09:35;-0.90;91.70
43524;DHT22;29120;52.006;6.020;2022-11-20T00:12:00;-0.90;91.80
43524;DHT22;29120;52.006;6.020;2022-11-20T00:14:26;-0.90;91.80
43524;DHT22;29120;52.006;6.020;2022-11-20T00:16:51;-0.90;91.90
43524;DHT22;29120;52.006;6.020;2022-11-20T00:19:17;-0.90;91.90
43524;DHT22;29120;52.006;6.020;2022-11-20T00:21:42;-1.00;91.90
43524;DHT22;29120;52.006;6.020;2022-11-20T00:24:08;-1.00;92.00
43524;DHT22;29120;52.006;6.020;2022-11-20T00:26:34;-1.00;92.10
43524;DHT22;29120;52.006;6.020;2022-11-20T00:28:59;-1.00;92.10
43524;DHT22;29120;52.006;6.020;2022-11-20T00:31:25;-1.00;92.10
43524;DHT22;29120;52.006;6.020;2022-11-20T00:33:51;-1.10;92.20
43524;DHT22;29120;52.006;6.020;2022-11-20T00:36:18;-1.10;92.20
43524;DHT22;29120;52.006;6.020;2022-11-20T00:38:43;-1.10;92.30
43524;DHT22;29120;52.006;6.020;2022-11-20T00:41:10;-1.20;92.30
43524;DHT22;29120;52.006;6.020;2022-11-20T00:43:36;-1.20;92.40
43524;DHT22;29120;52.006;6.020;2022-11-20T00:46:10;-1.20;92.40
43524;DHT22;29120;52.006;6.020;2022-11-20T00:48:37;-1.20;92.50
43524;DHT22;29120;52.006;6.020;2022-11-20T00:51:02;-1.30;92.50
43524;DHT22;29120;52.006;6.020;2022-11-20T00:53:28;-1.30;92.60
43524;DHT22;29120;52.006;6.020;2022-11-20T00:58:19;-1.30;92.60
43524;DHT22;29120;52.006;6.020;2022-11-20T01:00:44;-1.30;92.60
43524;DHT22;29120;52.006;6.020;2022-11-20T01:03:10;-1.30;92.70
43524;DHT22;29120;52.006;6.020;2022-11-20T01:05:35;-1.30;92.80
43524;DHT22;29120;52.006;6.020;2022-11-20T01:08:01;-1.30;92.80
43524;DHT22;29120;52.006;6.020;2022-11-20T01:10:26;-1.30;92.90
43524;DHT22;29120;52.006;6.020;2022-11-20T01:12:52;-1.40;92.90
43524;DHT22;29120;52.006;6.020;2022-11-20T01:15:37;-1.40;93.00
43524;DHT22;29120;52.006;6.020;2022-11-20T01:18:03;-1.40;93.00
43524;DHT22;29120;52.006;6.020;2022-11-20T01:20:28;-1.50;93.00
43524;DHT22;29120;52.006;6.020;2022-11-20T01:22:54;-1.50;93.10
43524;DHT22;29120;52.006;6.020;2022-11-20T01:25:19;-1.50;93.10
43524;DHT22;29120;52.006;6.020;2022-11-20T01:27:44;-1.50;93.10
43524;DHT22;29120;52.006;6.020;2022-11-20T01:30:10;-1.50;93.20
43524;DHT22;29120;52.006;6.020;2022-11-20T01:32:36;-1.50;93.20
43524;DHT22;29120;52.006;6.020;2022-11-20T01:35:01;-1.50;93.30
43524;DHT22;29120;52.006;6.020;2022-11-20T01:37:26;-1.50;93.30
43524;DHT22;29120;52.006;6.020;2022-11-20T01:39:52;-1.50;93.30
43524;DHT22;29120;52.006;6.020;2022-11-20T01:42:17;-1.60;93.30
43524;DHT22;29120;52.006;6.020;2022-11-20T01:45:42;-1.60;93.40
43524;DHT22;29120;52.006;6.020;2022-11-20T01:47:47;-1.60;93.40
43524;DHT22;29120;52.006;6.020;2022-11-20T01:50:15;-1.60;93.50
43524;DHT22;29120;52.006;6.020;2022-11-20T01:52:46;-1.60;93.60
43524;DHT22;29120;52.006;6.020;2022-11-20T01:55:15;-1.60;93.60
43524;DHT22;29120;52.006;6.020;2022-11-20T01:57:42;-1.60;93.60
43524;DHT22;29120;52.006;6.020;2022-11-20T02:00:10;-1.60;93.60
43524;DHT22;29120;52.006;6.020;2022-11-20T02:02:36;-1.60;93.70
43524;DHT22;29120;52.006;6.020;2022-11-20T02:05:03;-1.50;93.70
43524;DHT22;29120;52.006;6.020;2022-11-20T02:07:31;-1.50;93.60
43524;DHT22;29120;52.006;6.020;2022-11-20T02:09:57;-1.50;93.60
43524;DHT22;29120;52.006;6.020;2022-11-20T02:12:22;-1.50;93.70
43524;DHT22;29120;52.006;6.020;2022-11-20T02:15:06;-1.50;93.80
43524;DHT22;29120;52.006;6.020;2022-11-20T02:17:32;-1.50;93.80
43524;DHT22;29120;52.006;6.020;2022-11-20T02:19:57;-1.50;93.80
43524;DHT22;29120;52.006;6.020;2022-11-20T02:22:30;-1.50;93.70
43524;DHT22;29120;52.006;6.020;2022-11-20T02:24:58;-1.50;93.80
43524;DHT22;29120;52.006;6.020;2022-11-20T02:27:25;-1.60;93.80
43524;DHT22;29120;52.006;6.020;2022-11-20T02:29:52;-1.60;93.90
43524;DHT22;29120;52.006;6.020;2022-11-20T02:32:25;-1.70;93.90
43524;DHT22;29120;52.006;6.020;2022-11-20T02:34:51;-1.70;94.00
43524;DHT22;29120;52.006;6.020;2022-11-20T02:37:17;-1.70;94.00
43524;DHT22;29120;52.006;6.020;2022-11-20T02:39:43;-1.70;94.10
43524;DHT22;29120;52.006;6.020;2022-11-20T02:42:09;-1.70;94.10
43524;DHT22;29120;52.006;6.020;2022-11-20T02:44:35;-1.70;94.10
43524;DHT22;29120;52.006;6.020;2022-11-20T02:47:00;-1.80;94.10
43524;DHT22;29120;52.006;6.020;2022-11-20T02:49:26;-1.80;94.20
43524;DHT22;29120;52.006;6.020;2022-11-20T02:51:51;-1.80;94.30
43524;DHT22;29120;52.006;6.020;2022-11-20T02:54:17;-1.80;94.30
43524;DHT22;29120;52.006;6.020;2022-11-20T02:56:43;-1.90;94.40
43524;DHT22;29120;52.006;6.020;2022-11-20T02:59:08;-1.90;94.40
43524;DHT22;29120;52.006;6.020;2022-11-20T03:01:34;-1.90;94.40
43524;DHT22;29120;52.006;6.020;2022-11-20T03:03:59;-2.00;94.50
43524;DHT22;29120;52.006;6.020;2022-11-20T03:06:25;-2.00;94.50
43524;DHT22;29120;52.006;6.020;2022-11-20T03:08:50;-2.00;94.50
43524;DHT22;29120;52.006;6.020;2022-11-20T03:11:16;-2.10;94.60
43524;DHT22;29120;52.006;6.020;2022-11-20T03:13:42;-2.10;94.70
43524;DHT22;29120;52.006;6.020;2022-11-20T03:16:08;-2.10;94.70
43524;DHT22;29120;52.006;6.020;2022-11-20T03:18:34;-2.20;94.70
43524;DHT22;29120;52.006;6.020;2022-11-20T03:20:59;-2.20;94.80
43524;DHT22;29120;52.006;6.020;2022-11-20T03:23:25;-2.20;94.80
43524;DHT22;29120;52.006;6.020;2022-11-20T03:25:50;-2.20;94.80
43524;DHT22;29120;52.006;6.020;2022-11-20T03:28:16;-2.20;94.90
43524;DHT22;29120;52.006;6.020;2022-11-20T03:30:41;-2.20;94.90
43524;DHT22;29120;52.006;6.020;2022-11-20T03:33:07;-2.20;94.90
43524;DHT22;29120;52.006;6.020;2022-11-20T03:35:32;-2.20;95.00
43524;DHT22;29120;52.006;6.020;2022-11-20T03:37:58;-2.30;95.00
43524;DHT22;29120;52.006;6.020;2022-11-20T03:40:23;-2.30;95.00
43524;DHT22;29120;52.006;6.020;2022-11-20T03:42:49;-2.30;95.10
43524;DHT22;29120;52.006;6.020;2022-11-20T03:45:15;-2.30;95.10
43524;DHT22;29120;52.006;6.020;2022-11-20T03:47:40;-2.40;95.10
43524;DHT22;29120;52.006;6.020;2022-11-20T03:50:06;-2.40;95.10
43524;DHT22;29120;52.006;6.020;2022-11-20T03:52:32;-2.40;95.10
43524;DHT22;29120;52.006;6.020;2022-11-20T03:54:57;-2.40;95.10
43524;DHT22;29120;52.006;6.020;2022-11-20T03:57:23;-2.40;95.10
43524;DHT22;29120;52.006;6.020;2022-11-20T03:59:48;-2.30;95.10
43524;DHT22;29120;52.006;6.020;2022-11-20T04:02:14;-2.40;95.10
43524;DHT22;29120;52.006;6.020;2022-11-20T04:04:39;-2.40;95.20
43524;DHT22;29120;52.006;6.020;2022-11-20T04:07:04;-2.40;95.20
43524;DHT22;29120;52.006;6.020;2022-11-20T04:09:30;-2.40;95.30
43524;DHT22;29120;52.006;6.020;2022-11-20T04:11:55;-2.40;95.30
43524;DHT22;29120;52.006;6.020;2022-11-20T04:14:21;-2.50;95.30
43524;DHT22;29120;52.006;6.020;2022-11-20T04:16:46;-2.50;95.30
43524;DHT22;29120;52.006;6.020;2022-11-20T04:19:14;-2.50;95.30
43524;DHT22;29120;52.006;6.020;2022-11-20T04:21:40;-2.50;95.40
43524;DHT22;29120;52.006;6.020;2022-11-20T04:24:06;-2.50;95.40
43524;DHT22;29120;52.006;6.020;2022-11-20T04:26:31;-2.50;95.40
43524;DHT22;29120;52.006;6.020;2022-11-20T04:28:57;-2.50;95.30
43524;DHT22;29120;52.006;6.020;2022-11-20T04:31:24;-2.50;95.30
43524;DHT22;29120;52.006;6.020;2022-11-20T04:33:49;-2.50;95.30
43524;DHT22;29120;52.006;6.020;2022-11-20T04:38:40;-2.50;95.50
43524;DHT22;29120;52.006;6.020;2022-11-20T04:41:06;-2.60;95.60
43524;DHT22;29120;52.006;6.020;2022-11-20T04:43:32;-2.60;95.60
43524;DHT22;29120;52.006;6.020;2022-11-20T04:45:58;-2.60;95.70
43524;DHT22;29120;52.006;6.020;2022-11-20T04:48:24;-2.70;95.70
43524;DHT22;29120;52.006;6.020;2022-11-20T04:50:50;-2.70;95.70
43524;DHT22;29120;52.006;6.020;2022-11-20T04:53:16;-2.70;95.80
43524;DHT22;29120;52.006;6.020;2022-11-20T04:55:42;-2.70;95.80
43524;DHT22;29120;52.006;6.020;2022-11-20T04:58:07;-2.70;95.80
43524;DHT22;29120;52.006;6.020;2022-11-20T05:00:33;-2.80;95.80
43524;DHT22;29120;52.006;6.020;2022-11-20T05:02:58;-2.70;95.80
43524;DHT22;29120;52.006;6.020;2022-11-20T05:05:24;-2.70;95.80
43524;DHT22;29120;52.006;6.020;2022-11-20T05:07:49;-2.80;95.80
43524;DHT22;29120;52.006;6.020;2022-11-20T05:10:15;-2.80;95.80
43524;DHT22;29120;52.006;6.020;2022-11-20T05:12:40;-2.80;95.80
43524;DHT22;29120;52.006;6.020;2022-11-20T05:15:06;-2.70;95.90
43524;DHT22;29120;52.006;6.020;2022-11-20T05:17:32;-2.70;95.90
43524;DHT22;29120;52.006;6.020;2022-11-20T05:19:57;-2.70;96.00
43524;DHT22;29120;52.006;6.020;2022-11-20T05:22:23;-2.70;96.00
43524;DHT22;29120;52.006;6.020;2022-11-20T05:24:48;-2.80;96.00
43524;DHT22;29120;52.006;6.020;2022-11-20T05:27:13;-2.80;96.00
43524;DHT22;29120;52.006;6.020;2022-11-20T05:29:39;-2.80;96.10
43524;DHT22;29120;52.006;6.020;2022-11-20T05:32:04;-2.80;96.10
43524;DHT22;29120;52.006;6.020;2022-11-20T05:34:32;-2.90;96.10
43524;DHT22;29120;52.006;6.020;2022-11-20T05:36:58;-2.90;96.20
43524;DHT22;29120;52.006;6.020;2022-11-20T05:39:23;-2.90;96.20
43524;DHT22;29120;52.006;6.020;2022-11-20T05:41:48;-2.90;96.20
43524;DHT22;29120;52.006;6.020;2022-11-20T05:44:34;-2.90;96.20
43524;DHT22;29120;52.006;6.020;2022-11-20T05:46:59;-2.90;96.30
43524;DHT22;29120;52.006;6.020;2022-11-20T05:49:25;-2.90;96.30
43524;DHT22;29120;52.006;6.020;2022-11-20T05:51:50;-2.90;96.30
43524;DHT22;29120;52.006;6.020;2022-11-20T05:54:16;-2.90;96.30
43524;DHT22;29120;52.006;6.020;2022-11-20T05:56:41;-2.90;96.40
43524;DHT22;29120;52.006;6.020;2022-11-20T05:59:07;-3.00;96.40
43524;DHT22;29120;52.006;6.020;2022-11-20T06:01:32;-2.90;96.40
43524;DHT22;29120;52.006;6.020;2022-11-20T06:03:58;-3.00;96.40
43524;DHT22;29120;52.006;6.020;2022-11-20T06:06:23;-3.00;96.40
43524;DHT22;29120;52.006;6.020;2022-11-20T06:08:50;-3.00;96.40
43524;DHT22;29120;52.006;6.020;2022-11-20T06:11:16;-2.90;96.50
43524;DHT22;29120;52.006;6.020;2022-11-20T06:13:41;-3.00;96.50
43524;DHT22;29120;52.006;6.020;2022-11-20T06:16:07;-3.10;96.50
43524;DHT22;29120;52.006;6.020;2022-11-20T06:18:33;-3.10;96.50
43524;DHT22;29120;52.006;6.020;2022-11-20T06:20:59;-3.10;96.50
43524;DHT22;29120;52.006;6.020;2022-11-20T06:23:25;-3.10;96.60
43524;DHT22;29120;52.006;6.020;2022-11-20T06:25:50;-3.10;96.60
43524;DHT22;29120;52.006;6.020;2022-11-20T06:28:16;-3.10;96.60
43524;DHT22;29120;52.006;6.020;2022-11-20T06:30:44;-3.20;96.60
43524;DHT22;29120;52.006;6.020;2022-11-20T06:33:10;-3.20;96.60
43524;DHT22;29120;52.006;6.020;2022-11-20T06:35:35;-3.10;96.60
43524;DHT22;29120;52.006;6.020;2022-11-20T06:38:00;-3.10;96.60
43524;DHT22;29120;52.006;6.020;2022-11-20T06:40:26;-3.00;96.60
43524;DHT22;29120;52.006;6.020;2022-11-20T06:42:53;-2.90;96.60
43524;DHT22;29120;52.006;6.020;2022-11-20T06:45:18;-2.80;96.60
43524;DHT22;29120;52.006;6.020;2022-11-20T06:47:44;-2.80;96.50
43524;DHT22;29120;52.006;6.020;2022-11-20T06:50:09;-2.60;96.50
43524;DHT22;29120;52.006;6.020;2022-11-20T06:52:35;-2.60;96.80
43524;DHT22;29120;52.006;6.020;2022-11-20T06:55:00;-2.50;96.50
43524;DHT22;29120;52.006;6.020;2022-11-20T06:57:26;-2.50;96.50
43524;DHT22;29120;52.006;6.020;2022-11-20T06:59:51;-2.40;96.50
43524;DHT22;29120;52.006;6.020;2022-11-20T07:02:16;-2.30;96.50
43524;DHT22;29120;52.006;6.020;2022-11-20T07:04:42;-2.30;96.50
43524;DHT22;29120;52.006;6.020;2022-11-20T07:07:08;-2.30;96.50
43524;DHT22;29120;52.006;6.020;2022-11-20T07:09:33;-2.30;96.50
43524;DHT22;29120;52.006;6.020;2022-11-20T07:11:59;-2.20;96.50
43524;DHT22;29120;52.006;6.020;2022-11-20T07:14:24;-2.20;96.50
43524;DHT22;29120;52.006;6.020;2022-11-20T07:16:50;-2.20;96.50
43524;DHT22;29120;52.006;6.020;2022-11-20T07:19:15;-2.20;96.60
43524;DHT22;29120;52.006;6.020;2022-11-20T07:21:41;-2.20;96.70
43524;DHT22;29120;52.006;6.020;2022-11-20T07:24:06;-2.10;96.80
43524;DHT22;29120;52.006;6.020;2022-11-20T07:26:32;-2.20;96.80
43524;DHT22;29120;52.006;6.020;2022-11-20T07:28:57;-2.10;96.90
43524;DHT22;29120;52.006;6.020;2022-11-20T07:31:23;-2.20;96.90
43524;DHT22;29120;52.006;6.020;2022-11-20T07:33:48;-2.10;97.00
43524;DHT22;29120;52.006;6.020;2022-11-20T07:36:14;-2.10;97.10
43524;DHT22;29120;52.006;6.020;2022-11-20T07:38:39;-2.10;97.10
43524;DHT22;29120;52.006;6.020;2022-11-20T07:41:05;-2.10;97.10
43524;DHT22;29120;52.006;6.020;2022-11-20T07:43:30;-2.00;97.10
43524;DHT22;29120;52.006;6.020;2022-11-20T07:45:56;-1.90;97.10
43524;DHT22;29120;52.006;6.020;2022-11-20T07:48:22;-1.90;97.10
43524;DHT22;29120;52.006;6.020;2022-11-20T07:50:48;-1.80;97.10
43524;DHT22;29120;52.006;6.020;2022-11-20T07:53:13;-1.80;97.10
43524;DHT22;29120;52.006;6.020;2022-11-20T07:55:39;-1.70;97.10
43524;DHT22;29120;52.006;6.020;2022-11-20T07:58:04;-1.60;97.10
43524;DHT22;29120;52.006;6.020;2022-11-20T08:00:30;-1.60;97.00
43524;DHT22;29120;52.006;6.020;2022-11-20T08:02:55;-1.50;97.10
43524;DHT22;29120;52.006;6.020;2022-11-20T08:05:21;-1.40;97.10
43524;DHT22;29120;52.006;6.020;2022-11-20T08:07:46;-1.40;97.10
43524;DHT22;29120;52.006;6.020;2022-11-20T08:10:12;-1.30;97.20
43524;DHT22;29120;52.006;6.020;2022-11-20T08:12:45;-1.20;97.20
43524;DHT22;29120;52.006;6.020;2022-11-20T08:15:29;-1.20;97.20
43524;DHT22;29120;52.006;6.020;2022-11-20T08:18:01;-1.10;97.20
43524;DHT22;29120;52.006;6.020;2022-11-20T08:20:27;-0.90;97.20
43524;DHT22;29120;52.006;6.020;2022-11-20T08:22:56;-0.80;97.20
43524;DHT22;29120;52.006;6.020;2022-11-20T08:25:22;-0.60;97.10
43524;DHT22;29120;52.006;6.020;2022-11-20T08:27:47;-0.50;97.10
43524;DHT22;29120;52.006;6.020;2022-11-20T08:30:13;-0.50;97.10
43524;DHT22;29120;52.006;6.020;2022-11-20T08:32:38;-0.40;97.10
43524;DHT22;29120;52.006;6.020;2022-11-20T08:35:04;-0.40;97.10
43524;DHT22;29120;52.006;6.020;2022-11-20T08:37:30;-0.40;97.20
43524;DHT22;29120;52.006;6.020;2022-11-20T08:39:55;-0.40;97.20
43524;DHT22;29120;52.006;6.020;2022-11-20T08:42:22;-0.40;97.30
43524;DHT22;29120;52.006;6.020;2022-11-20T08:44:47;-0.20;97.30
43524;DHT22;29120;52.006;6.020;2022-11-20T08:47:13;-0.10;97.20
43524;DHT22;29120;52.006;6.020;2022-11-20T08:49:38;-0.10;97.20
43524;DHT22;29120;52.006;6.020;2022-11-20T08:52:04;-0.10;97.20
43524;DHT22;29120;52.006;6.020;2022-11-20T08:54:29;-0.10;97.30
43524;DHT22;29120;52.006;6.020;2022-11-20T08:56:54;0.00;97.30
43524;DHT22;29120;52.006;6.020;2022-11-20T08:59:20;0.10;97.20
43524;DHT22;29120;52.006;6.020;2022-11-20T09:01:45;0.10;97.20
43524;DHT22;29120;52.006;6.020;2022-11-20T09:04:11;0.20;97.20
43524;DHT22;29120;52.006;6.020;2022-11-20T09:06:37;0.20;97.20
43524;DHT22;29120;52.006;6.020;2022-11-20T09:09:02;0.30;97.20
43524;DHT22;29120;52.006;6.020;2022-11-20T09:11:28;0.50;97.20
43524;DHT22;29120;52.006;6.020;2022-11-20T09:13:53;0.70;97.00
43524;DHT22;29120;52.006;6.020;2022-11-20T09:16:18;0.80;96.90
43524;DHT22;29120;52.006;6.020;2022-11-20T09:18:44;1.00;96.80
43524;DHT22;29120;52.006;6.020;2022-11-20T09:21:10;1.10;96.80
43524;DHT22;29120;52.006;6.020;2022-11-20T09:23:36;1.20;96.70
43524;DHT22;29120;52.006;6.020;2022-11-20T09:26:03;1.20;96.60
43524;DHT22;29120;52.006;6.020;2022-11-20T09:28:29;1.20;96.60
43524;DHT22;29120;52.006;6.020;2022-11-20T09:30:55;1.20;96.60
43524;DHT22;29120;52.006;6.020;2022-11-20T09:33:20;1.20;96.60
43524;DHT22;29120;52.006;6.020;2022-11-20T09:35:46;1.20;96.60
43524;DHT22;29120;52.006;6.020;2022-11-20T09:38:11;1.10;96.70
43524;DHT22;29120;52.006;6.020;2022-11-20T09:40:40;1.10;96.70
43524;DHT22;29120;52.006;6.020;2022-11-20T09:43:13;1.10;96.70
43524;DHT22;29120;52.006;6.020;2022-11-20T09:45:48;1.10;96.80
43524;DHT22;29120;52.006;6.020;2022-11-20T09:48:20;1.10;96.90
43524;DHT22;29120;52.006;6.020;2022-11-20T09:50:57;1.10;96.90
43524;DHT22;29120;52.006;6.020;2022-11-20T09:53:30;1.20;96.90
43524;DHT22;29120;52.006;6.020;2022-11-20T09:55:59;1.20;96.90
43524;DHT22;29120;52.006;6.020;2022-11-20T10:00:55;1.30;96.80
43524;DHT22;29120;52.006;6.020;2022-11-20T10:06:15;1.40;96.70
43524;DHT22;29120;52.006;6.020;2022-11-20T10:08:44;1.40;96.70
43524;DHT22;29120;52.006;6.020;2022-11-20T10:11:14;1.50;96.70
43524;DHT22;29120;52.006;6.020;2022-11-20T10:21:23;1.90;96.60
43524;DHT22;29120;52.006;6.020;2022-11-20T10:31:25;2.70;96.30
43524;DHT22;29120;52.006;6.020;2022-11-20T10:33:52;2.90;95.90
43524;DHT22;29120;52.006;6.020;2022-11-20T10:36:23;3.00;95.90
43524;DHT22;29120;52.006;6.020;2022-11-20T10:38:55;3.10;95.90
43524;DHT22;29120;52.006;6.020;2022-11-20T10:41:26;3.40;95.80
43524;DHT22;29120;52.006;6.020;2022-11-20T10:44:05;3.50;95.70
43524;DHT22;29120;52.006;6.020;2022-11-20T10:46:37;3.60;95.60
43524;DHT22;29120;52.006;6.020;2022-11-20T10:49:15;4.20;95.50
43524;DHT22;29120;52.006;6.020;2022-11-20T10:56:48;5.30;93.80
43524;DHT22;29120;52.006;6.020;2022-11-20T11:01:41;5.20;94.10
43524;DHT22;29120;52.006;6.020;2022-11-20T11:06:52;7.00;93.70
43524;DHT22;29120;52.006;6.020;2022-11-20T11:09:23;8.10;91.80
43524;DHT22;29120;52.006;6.020;2022-11-20T11:11:50;7.70;91.50
43524;DHT22;29120;52.006;6.020;2022-11-20T11:14:16;7.10;91.80
43524;DHT22;29120;52.006;6.020;2022-11-20T11:16:51;6.60;92.30
43524;DHT22;29120;52.006;6.020;2022-11-20T11:19:17;6.20;92.80
43524;DHT22;29120;52.006;6.020;2022-11-20T11:22:01;5.70;93.10
43524;DHT22;29120;52.006;6.020;2022-11-20T11:24:31;5.30;93.50
43524;DHT22;29120;52.006;6.020;2022-11-20T11:26:57;4.90;93.80
43524;DHT22;29120;52.006;6.020;2022-11-20T11:29:24;4.60;94.10
43524;DHT22;29120;52.006;6.020;2022-11-20T11:32:02;4.40;94.30
43524;DHT22;29120;52.006;6.020;2022-11-20T11:34:28;4.20;94.40
43524;DHT22;29120;52.006;6.020;2022-11-20T11:36:57;4.10;94.50
43524;DHT22;29120;52.006;6.020;2022-11-20T11:39:22;4.00;94.60
43524;DHT22;29120;52.006;6.020;2022-11-20T11:41:49;3.90;94.70
43524;DHT22;29120;52.006;6.020;2022-11-20T11:44:15;3.90;94.70
43524;DHT22;29120;52.006;6.020;2022-11-20T11:47:00;3.80;94.70
43524;DHT22;29120;52.006;6.020;2022-11-20T11:49:27;3.80;94.80
43524;DHT22;29120;52.006;6.020;2022-11-20T11:54:25;3.80;94.90
43524;DHT22;29120;52.006;6.020;2022-11-20T11:56:51;3.90;95.00
43524;DHT22;29120;52.006;6.020;2022-11-20T11:59:22;4.00;94.90
43524;DHT22;29120;52.006;6.020;2022-11-20T12:01:51;4.10;94.80
43524;DHT22;29120;52.006;6.020;2022-11-20T12:07:08;4.10;94.80
43524;DHT22;29120;52.006;6.020;2022-11-20T12:09:37;4.00;94.90
43524;DHT22;29120;52.006;6.020;2022-11-20T12:12:10;4.00;94.90
43524;DHT22;29120;52.006;6.020;2022-11-20T12:14:41;3.90;95.00
43524;DHT22;29120;52.006;6.020;2022-11-20T12:17:09;3.90;95.10
43524;DHT22;29120;52.006;6.020;2022-11-20T12:19:36;3.80;95.20
43524;DHT22;29120;52.006;6.020;2022-11-20T12:25:02;3.70;95.30
43524;DHT22;29120;52.006;6.020;2022-11-20T12:30:10;3.70;95.40
43524;DHT22;29120;52.006;6.020;2022-11-20T12:32:55;3.70;95.40
43524;DHT22;29120;52.006;6.020;2022-11-20T12:40:35;3.60;95.50
43524;DHT22;29120;52.006;6.020;2022-11-20T12:43:19;3.60;95.60
43524;DHT22;29120;52.006;6.020;2022-11-20T13:01:52;3.60;96.20
43524;DHT22;29120;52.006;6.020;2022-11-20T13:06:46;3.70;96.40
43524;DHT22;29120;52.006;6.020;2022-11-20T13:09:12;3.70;96.60
43524;DHT22;29120;52.006;6.020;2022-11-20T13:11:44;3.60;96.60
43524;DHT22;29120;52.006;6.020;2022-11-20T13:14:33;3.60;96.70
43524;DHT22;29120;52.006;6.020;2022-11-20T13:17:05;3.60;96.80
43524;DHT22;29120;52.006;6.020;2022-11-20T13:19:33;3.60;96.90
43524;DHT22;29120;52.006;6.020;2022-11-20T13:21:59;3.70;96.90
43524;DHT22;29120;52.006;6.020;2022-11-20T13:24:26;3.70;97.00
43524;DHT22;29120;52.006;6.020;2022-11-20T13:29:26;3.70;97.00
43524;DHT22;29120;52.006;6.020;2022-11-20T13:32:00;3.60;97.10
43524;DHT22;29120;52.006;6.020;2022-11-20T13:34:27;3.60;97.20
43524;DHT22;29120;52.006;6.020;2022-11-20T13:36:54;3.50;97.40
43524;DHT22;29120;52.006;6.020;2022-11-20T13:41:55;3.40;97.60
43524;DHT22;29120;52.006;6.020;2022-11-20T13:44:37;3.50;97.60
43524;DHT22;29120;52.006;6.020;2022-11-20T13:47:03;3.50;97.60
43524;DHT22;29120;52.006;6.020;2022-11-20T13:49:33;3.50;97.70
43524;DHT22;29120;52.006;6.020;2022-11-20T13:52:04;3.50;97.80
43524;DHT22;29120;52.006;6.020;2022-11-20T14:00:13;3.40;97.90
43524;DHT22;29120;52.006;6.020;2022-11-20T14:02:41;3.40;98.00
43524;DHT22;29120;52.006;6.020;2022-11-20T14:05:11;3.40;98.10
43524;DHT22;29120;52.006;6.020;2022-11-20T14:07:41;3.50;98.20
43524;DHT22;29120;52.006;6.020;2022-11-20T14:10:20;3.50;98.20
43524;DHT22;29120;52.006;6.020;2022-11-20T14:12:46;3.50;98.20
43524;DHT22;29120;52.006;6.020;2022-11-20T14:15:23;3.50;98.30
43524;DHT22;29120;52.006;6.020;2022-11-20T14:17:49;3.60;98.30
43524;DHT22;29120;52.006;6.020;2022-11-20T14:20:14;3.60;98.30
43524;DHT22;29120;52.006;6.020;2022-11-20T14:22:47;3.60;98.30
43524;DHT22;29120;52.006;6.020;2022-11-20T14:27:42;3.60;98.40
43524;DHT22;29120;52.006;6.020;2022-11-20T14:33:01;3.70;98.60
43524;DHT22;29120;52.006;6.020;2022-11-20T14:35:27;3.70;98.60
43524;DHT22;29120;52.006;6.020;2022-11-20T14:37:53;3.70;98.60
43524;DHT22;29120;52.006;6.020;2022-11-20T14:42:50;3.60;98.70
43524;DHT22;29120;52.006;6.020;2022-11-20T14:45:16;3.60;98.80
43524;DHT22;29120;52.006;6.020;2022-11-20T14:47:42;3.70;99.00
43524;DHT22;29120;52.006;6.020;2022-11-20T14:50:12;3.70;99.00
43524;DHT22;29120;52.006;6.020;2022-11-20T14:52:39;3.70;99.00
43524;DHT22;29120;52.006;6.020;2022-11-20T14:55:14;3.70;99.00
43524;DHT22;29120;52.006;6.020;2022-11-20T14:57:54;3.70;99.10
43524;DHT22;29120;52.006;6.020;2022-11-20T15:00:20;3.60;99.20
43524;DHT22;29120;52.006;6.020;2022-11-20T15:02:47;3.70;99.30
43524;DHT22;29120;52.006;6.020;2022-11-20T15:05:13;3.60;99.40
43524;DHT22;29120;52.006;6.020;2022-11-20T15:07:40;3.60;99.40
43524;DHT22;29120;52.006;6.020;2022-11-20T15:10:09;3.60;99.50
43524;DHT22;29120;52.006;6.020;2022-11-20T15:12:52;3.60;99.60
43524;DHT22;29120;52.006;6.020;2022-11-20T15:15:24;3.60;99.60
43524;DHT22;29120;52.006;6.020;2022-11-20T15:17:50;3.70;99.70
43524;DHT22;29120;52.006;6.020;2022-11-20T15:20:16;3.70;99.70
43524;DHT22;29120;52.006;6.020;2022-11-20T15:22:42;3.70;99.60
43524;DHT22;29120;52.006;6.020;2022-11-20T15:25:14;3.70;99.60
43524;DHT22;29120;52.006;6.020;2022-11-20T15:27:40;3.70;99.70
43524;DHT22;29120;52.006;6.020;2022-11-20T15:30:15;3.70;99.70
43524;DHT22;29120;52.006;6.020;2022-11-20T15:32:42;3.70;99.70
43524;DHT22;29120;52.006;6.020;2022-11-20T15:35:07;3.70;99.70
43524;DHT22;29120;52.006;6.020;2022-11-20T15:37:33;3.80;99.80
43524;DHT22;29120;52.006;6.020;2022-11-20T15:39:58;3.80;99.80
43524;DHT22;29120;52.006;6.020;2022-11-20T15:42:24;3.80;99.80
43524;DHT22;29120;52.006;6.020;2022-11-20T15:44:49;3.80;99.80
43524;DHT22;29120;52.006;6.020;2022-11-20T15:47:15;3.80;99.80
43524;DHT22;29120;52.006;6.020;2022-11-20T15:49:42;3.80;99.80
43524;DHT22;29120;52.006;6.020;2022-11-20T15:52:08;3.90;99.90
43524;DHT22;29120;52.006;6.020;2022-11-20T15:54:34;3.80;99.90
43524;DHT22;29120;52.006;6.020;2022-11-20T15:56:59;3.90;99.90
43524;DHT22;29120;52.006;6.020;2022-11-20T15:59:26;3.80;99.90
43524;DHT22;29120;52.006;6.020;2022-11-20T16:01:51;3.80;99.90
43524;DHT22;29120;52.006;6.020;2022-11-20T16:04:16;3.80;99.90
43524;DHT22;29120;52.006;6.020;2022-11-20T16:06:43;3.80;99.90
43524;DHT22;29120;52.006;6.020;2022-11-20T16:09:09;3.80;99.90
43524;DHT22;29120;52.006;6.020;2022-11-20T16:11:35;3.80;99.90
43524;DHT22;29120;52.006;6.020;2022-11-20T16:14:02;3.80;99.90
43524;DHT22;29120;52.006;6.020;2022-11-20T16:16:46;3.90;99.90
43524;DHT22;29120;52.006;6.020;2022-11-20T16:19:12;3.90;99.90
43524;DHT22;29120;52.006;6.020;2022-11-20T16:21:38;3.90;99.90
43524;DHT22;29120;52.006;6.020;2022-11-20T16:24:06;3.90;99.90
43524;DHT22;29120;52.006;6.020;2022-11-20T16:26:33;3.90;99.90
43524;DHT22;29120;52.006;6.020;2022-11-20T16:28:59;3.80;99.90
43524;DHT22;29120;52.006;6.020;2022-11-20T16:31:25;3.80;99.90
43524;DHT22;29120;52.006;6.020;2022-11-20T16:33:51;3.70;99.90
43524;DHT22;29120;52.006;6.020;2022-11-20T16:36:17;3.70;99.90
43524;DHT22;29120;52.006;6.020;2022-11-20T16:38:43;3.70;99.90
43524;DHT22;29120;52.006;6.020;2022-11-20T16:41:09;3.70;99.90
43524;DHT22;29120;52.006;6.020;2022-11-20T16:43:44;3.70;99.90
43524;DHT22;29120;52.006;6.020;2022-11-20T16:46:09;3.70;99.90
43524;DHT22;29120;52.006;6.020;2022-11-20T16:48:35;3.70;99.90
43524;DHT22;29120;52.006;6.020;2022-11-20T16:51:00;3.70;99.90
43524;DHT22;29120;52.006;6.020;2022-11-20T16:53:26;3.70;99.90
43524;DHT22;29120;52.006;6.020;2022-11-20T16:55:51;3.70;99.90
43524;DHT22;29120;52.006;6.020;2022-11-20T16:58:16;3.70;99.90
43524;DHT22;29120;52.006;6.020;2022-11-20T17:00:42;3.70;99.90
43524;DHT22;29120;52.006;6.020;2022-11-20T17:03:07;3.70;99.90
43524;DHT22;29120;52.006;6.020;2022-11-20T17:05:34;3.70;99.90
43524;DHT22;29120;52.006;6.020;2022-11-20T17:07:59;3.70;99.90